sensor_id;sensor_type;location;lat;lon;timestamp;P1;durP1;ratioP1;P2;durP2;ratioP2
19778;SDS011;10049;59.306;18.090;2023-08-06T00:01:19;4.88;;;1.80;;
19778;SDS011;10049;59.306;18.090;2023-08-06T00:03:47;5.97;;;1.63;;
19778;SDS011;10049;59.306;18.090;2023-08-06T00:06:15;4.07;;;1.70;;
19778;SDS011;10049;59.306;18.090;2023-08-06T00:08:42;4.63;;;2.20;;
19778;SDS011;10049;59.306;18.090;2023-08-06T00:11:10;6.93;;;2.05;;
19778;SDS011;10049;59.306;18.090;2023-08-06T00:13:38;2.75;;;1.63;;
19778;SDS011;10049;59.306;18.090;2023-08-06T00:16:09;4.45;;;1.83;;
19778;SDS011;10049;59.306;18.090;2023-08-06T00:18:38;3.47;;;1.77;;
19778;SDS011;10049;59.306;18.090;2023-08-06T00:21:06;6.40;;;1.83;;
19778;SDS011;10049;59.306;18.090;2023-08-06T00:23:33;4.32;;;1.90;;
19778;SDS011;10049;59.306;18.090;2023-08-06T00:26:01;6.78;;;1.73;;
19778;SDS011;10049;59.306;18.090;2023-08-06T00:28:28;3.13;;;1.80;;
19778;SDS011;10049;59.306;18.090;2023-08-06T00:30:56;2.92;;;1.45;;
19778;SDS011;10049;59.306;18.090;2023-08-06T00:33:24;3.97;;;1.58;;
19778;SDS011;10049;59.306;18.090;2023-08-06T00:35:53;3.42;;;1.98;;
19778;SDS011;10049;59.306;18.090;2023-08-06T00:38:21;3.42;;;1.60;;
19778;SDS011;10049;59.306;18.090;2023-08-06T00:40:48;5.15;;;1.70;;
19778;SDS011;10049;59.306;18.090;2023-08-06T00:43:18;5.35;;;1.70;;
19778;SDS011;10049;59.306;18.090;2023-08-06T00:45:46;3.75;;;1.70;;
19778;SDS011;10049;59.306;18.090;2023-08-06T00:48:13;5.25;;;1.80;;
19778;SDS011;10049;59.306;18.090;2023-08-06T00:50:41;2.85;;;1.70;;
19778;SDS011;10049;59.306;18.090;2023-08-06T00:53:10;4.43;;;1.65;;
19778;SDS011;10049;59.306;18.090;2023-08-06T00:55:37;3.63;;;2.00;;
19778;SDS011;10049;59.306;18.090;2023-08-06T00:58:05;4.25;;;1.55;;
19778;SDS011;10049;59.306;18.090;2023-08-06T01:00:32;2.72;;;1.77;;
19778;SDS011;10049;59.306;18.090;2023-08-06T01:03:00;3.30;;;1.70;;
19778;SDS011;10049;59.306;18.090;2023-08-06T01:05:28;3.60;;;2.00;;
19778;SDS011;10049;59.306;18.090;2023-08-06T01:08:00;4.18;;;1.95;;
19778;SDS011;10049;59.306;18.090;2023-08-06T01:10:38;4.00;;;1.95;;
19778;SDS011;10049;59.306;18.090;2023-08-06T01:13:08;8.90;;;2.20;;
19778;SDS011;10049;59.306;18.090;2023-08-06T01:15:41;4.43;;;1.90;;
19778;SDS011;10049;59.306;18.090;2023-08-06T01:18:11;5.68;;;1.85;;
19778;SDS011;10049;59.306;18.090;2023-08-06T01:20:41;7.13;;;1.98;;
19778;SDS011;10049;59.306;18.090;2023-08-06T01:23:09;5.43;;;2.05;;
19778;SDS011;10049;59.306;18.090;2023-08-06T01:25:39;5.30;;;2.10;;
19778;SDS011;10049;59.306;18.090;2023-08-06T01:28:10;4.32;;;2.08;;
19778;SDS011;10049;59.306;18.090;2023-08-06T01:30:41;2.88;;;1.83;;
19778;SDS011;10049;59.306;18.090;2023-08-06T01:33:10;4.32;;;1.98;;
19778;SDS011;10049;59.306;18.090;2023-08-06T01:35:39;4.35;;;1.77;;
19778;SDS011;10049;59.306;18.090;2023-08-06T01:38:09;4.90;;;2.15;;
19778;SDS011;10049;59.306;18.090;2023-08-06T01:40:37;5.95;;;2.17;;
19778;SDS011;10049;59.306;18.090;2023-08-06T01:43:05;4.47;;;1.85;;
19778;SDS011;10049;59.306;18.090;2023-08-06T01:45:33;2.92;;;2.15;;
19778;SDS011;10049;59.306;18.090;2023-08-06T01:48:01;5.60;;;2.60;;
19778;SDS011;10049;59.306;18.090;2023-08-06T01:50:29;3.55;;;2.08;;
19778;SDS011;10049;59.306;18.090;2023-08-06T01:52:58;5.65;;;2.47;;
19778;SDS011;10049;59.306;18.090;2023-08-06T01:55:28;5.78;;;2.03;;
19778;SDS011;10049;59.306;18.090;2023-08-06T01:58:01;3.00;;;1.90;;
19778;SDS011;10049;59.306;18.090;2023-08-06T02:00:29;5.45;;;2.13;;
19778;SDS011;10049;59.306;18.090;2023-08-06T02:02:57;3.53;;;2.10;;
19778;SDS011;10049;59.306;18.090;2023-08-06T02:05:24;4.65;;;2.10;;
19778;SDS011;10049;59.306;18.090;2023-08-06T02:07:54;11.60;;;2.33;;
19778;SDS011;10049;59.306;18.090;2023-08-06T02:10:23;5.88;;;2.50;;
19778;SDS011;10049;59.306;18.090;2023-08-06T02:12:52;3.90;;;2.10;;
19778;SDS011;10049;59.306;18.090;2023-08-06T02:15:19;7.28;;;2.10;;
19778;SDS011;10049;59.306;18.090;2023-08-06T02:17:47;4.10;;;2.30;;
19778;SDS011;10049;59.306;18.090;2023-08-06T02:20:15;3.47;;;1.92;;
19778;SDS011;10049;59.306;18.090;2023-08-06T02:22:43;6.00;;;2.10;;
19778;SDS011;10049;59.306;18.090;2023-08-06T02:25:12;5.10;;;1.98;;
19778;SDS011;10049;59.306;18.090;2023-08-06T02:27:39;6.22;;;2.45;;
19778;SDS011;10049;59.306;18.090;2023-08-06T02:30:09;7.40;;;2.30;;
19778;SDS011;10049;59.306;18.090;2023-08-06T02:32:41;5.13;;;2.10;;
19778;SDS011;10049;59.306;18.090;2023-08-06T02:35:08;4.45;;;2.15;;
19778;SDS011;10049;59.306;18.090;2023-08-06T02:37:36;3.10;;;1.70;;
19778;SDS011;10049;59.306;18.090;2023-08-06T02:40:04;2.40;;;1.85;;
19778;SDS011;10049;59.306;18.090;2023-08-06T02:42:32;3.67;;;1.90;;
19778;SDS011;10049;59.306;18.090;2023-08-06T02:45:03;6.70;;;2.00;;
19778;SDS011;10049;59.306;18.090;2023-08-06T02:47:34;4.57;;;1.92;;
19778;SDS011;10049;59.306;18.090;2023-08-06T02:50:02;2.78;;;1.88;;
19778;SDS011;10049;59.306;18.090;2023-08-06T02:52:29;4.03;;;2.00;;
19778;SDS011;10049;59.306;18.090;2023-08-06T02:54:57;4.82;;;2.00;;
19778;SDS011;10049;59.306;18.090;2023-08-06T02:57:25;3.83;;;1.77;;
19778;SDS011;10049;59.306;18.090;2023-08-06T02:59:54;4.22;;;1.95;;
19778;SDS011;10049;59.306;18.090;2023-08-06T03:02:22;2.28;;;1.80;;
19778;SDS011;10049;59.306;18.090;2023-08-06T03:04:51;2.70;;;1.77;;
19778;SDS011;10049;59.306;18.090;2023-08-06T03:07:19;3.00;;;1.80;;
19778;SDS011;10049;59.306;18.090;2023-08-06T03:09:49;4.20;;;1.67;;
19778;SDS011;10049;59.306;18.090;2023-08-06T03:12:18;3.55;;;1.80;;
19778;SDS011;10049;59.306;18.090;2023-08-06T03:14:46;2.78;;;1.60;;
19778;SDS011;10049;59.306;18.090;2023-08-06T03:17:14;4.65;;;1.75;;
19778;SDS011;10049;59.306;18.090;2023-08-06T03:19:43;3.33;;;1.63;;
19778;SDS011;10049;59.306;18.090;2023-08-06T03:22:13;3.47;;;1.77;;
19778;SDS011;10049;59.306;18.090;2023-08-06T03:24:42;2.03;;;1.50;;
19778;SDS011;10049;59.306;18.090;2023-08-06T03:27:10;1.92;;;1.48;;
19778;SDS011;10049;59.306;18.090;2023-08-06T03:29:39;4.15;;;1.70;;
19778;SDS011;10049;59.306;18.090;2023-08-06T03:32:08;5.28;;;1.80;;
19778;SDS011;10049;59.306;18.090;2023-08-06T03:34:37;1.77;;;1.48;;
19778;SDS011;10049;59.306;18.090;2023-08-06T03:37:06;3.28;;;1.60;;
19778;SDS011;10049;59.306;18.090;2023-08-06T03:39:36;2.30;;;1.60;;
19778;SDS011;10049;59.306;18.090;2023-08-06T03:42:05;3.15;;;1.77;;
19778;SDS011;10049;59.306;18.090;2023-08-06T03:44:33;3.72;;;1.67;;
19778;SDS011;10049;59.306;18.090;2023-08-06T03:47:03;3.33;;;1.63;;
19778;SDS011;10049;59.306;18.090;2023-08-06T03:49:32;1.98;;;1.50;;
19778;SDS011;10049;59.306;18.090;2023-08-06T03:52:00;2.70;;;1.63;;
19778;SDS011;10049;59.306;18.090;2023-08-06T03:54:29;1.98;;;1.52;;
19778;SDS011;10049;59.306;18.090;2023-08-06T03:57:02;3.05;;;1.77;;
19778;SDS011;10049;59.306;18.090;2023-08-06T03:59:30;2.42;;;1.60;;
19778;SDS011;10049;59.306;18.090;2023-08-06T04:01:59;1.90;;;1.20;;
19778;SDS011;10049;59.306;18.090;2023-08-06T04:04:27;4.75;;;1.60;;
19778;SDS011;10049;59.306;18.090;2023-08-06T04:06:55;1.77;;;1.30;;
19778;SDS011;10049;59.306;18.090;2023-08-06T04:09:27;2.58;;;1.40;;
19778;SDS011;10049;59.306;18.090;2023-08-06T04:11:58;2.00;;;1.45;;
19778;SDS011;10049;59.306;18.090;2023-08-06T04:14:28;4.07;;;1.52;;
19778;SDS011;10049;59.306;18.090;2023-08-06T04:16:56;2.95;;;1.50;;
19778;SDS011;10049;59.306;18.090;2023-08-06T04:19:24;1.85;;;1.35;;
19778;SDS011;10049;59.306;18.090;2023-08-06T04:21:52;3.70;;;1.60;;
19778;SDS011;10049;59.306;18.090;2023-08-06T04:24:20;3.05;;;1.30;;
19778;SDS011;10049;59.306;18.090;2023-08-06T04:26:49;2.50;;;1.25;;
19778;SDS011;10049;59.306;18.090;2023-08-06T04:29:17;1.95;;;1.30;;
19778;SDS011;10049;59.306;18.090;2023-08-06T04:31:47;3.25;;;1.50;;
19778;SDS011;10049;59.306;18.090;2023-08-06T04:34:21;2.05;;;1.40;;
19778;SDS011;10049;59.306;18.090;2023-08-06T04:36:51;2.95;;;1.40;;
19778;SDS011;10049;59.306;18.090;2023-08-06T04:39:21;3.25;;;1.50;;
19778;SDS011;10049;59.306;18.090;2023-08-06T04:41:49;1.65;;;1.23;;
19778;SDS011;10049;59.306;18.090;2023-08-06T04:44:16;1.75;;;1.50;;
19778;SDS011;10049;59.306;18.090;2023-08-06T04:46:44;3.88;;;1.50;;
19778;SDS011;10049;59.306;18.090;2023-08-06T04:49:14;2.30;;;1.30;;
19778;SDS011;10049;59.306;18.090;2023-08-06T04:51:42;2.40;;;1.70;;
19778;SDS011;10049;59.306;18.090;2023-08-06T04:54:10;3.95;;;1.60;;
19778;SDS011;10049;59.306;18.090;2023-08-06T04:56:37;1.83;;;1.30;;
19778;SDS011;10049;59.306;18.090;2023-08-06T04:59:05;1.85;;;1.33;;
19778;SDS011;10049;59.306;18.090;2023-08-06T05:01:33;2.45;;;1.33;;
19778;SDS011;10049;59.306;18.090;2023-08-06T05:04:03;2.30;;;1.30;;
19778;SDS011;10049;59.306;18.090;2023-08-06T05:06:33;3.05;;;1.75;;
19778;SDS011;10049;59.306;18.090;2023-08-06T05:09:03;2.05;;;1.42;;
19778;SDS011;10049;59.306;18.090;2023-08-06T05:11:34;2.75;;;1.45;;
19778;SDS011;10049;59.306;18.090;2023-08-06T05:14:06;2.83;;;1.40;;
19778;SDS011;10049;59.306;18.090;2023-08-06T05:16:33;2.28;;;1.40;;
19778;SDS011;10049;59.306;18.090;2023-08-06T05:19:07;2.13;;;1.40;;
19778;SDS011;10049;59.306;18.090;2023-08-06T05:21:39;1.75;;;1.27;;
19778;SDS011;10049;59.306;18.090;2023-08-06T05:24:07;1.95;;;1.33;;
19778;SDS011;10049;59.306;18.090;2023-08-06T05:26:36;3.05;;;1.17;;
19778;SDS011;10049;59.306;18.090;2023-08-06T05:29:04;3.75;;;1.20;;
19778;SDS011;10049;59.306;18.090;2023-08-06T05:31:33;3.75;;;1.40;;
19778;SDS011;10049;59.306;18.090;2023-08-06T05:34:00;3.60;;;1.40;;
19778;SDS011;10049;59.306;18.090;2023-08-06T05:36:28;2.15;;;1.33;;
19778;SDS011;10049;59.306;18.090;2023-08-06T05:39:03;1.90;;;1.00;;
19778;SDS011;10049;59.306;18.090;2023-08-06T05:41:31;1.23;;;1.00;;
19778;SDS011;10049;59.306;18.090;2023-08-06T05:44:01;3.10;;;1.20;;
19778;SDS011;10049;59.306;18.090;2023-08-06T05:46:28;1.25;;;1.15;;
19778;SDS011;10049;59.306;18.090;2023-08-06T05:48:59;1.60;;;1.05;;
19778;SDS011;10049;59.306;18.090;2023-08-06T05:51:27;1.45;;;1.33;;
19778;SDS011;10049;59.306;18.090;2023-08-06T05:53:54;2.75;;;1.20;;
19778;SDS011;10049;59.306;18.090;2023-08-06T05:56:23;1.75;;;1.08;;
19778;SDS011;10049;59.306;18.090;2023-08-06T05:58:51;3.30;;;1.30;;
19778;SDS011;10049;59.306;18.090;2023-08-06T06:01:18;2.25;;;1.40;;
19778;SDS011;10049;59.306;18.090;2023-08-06T06:03:46;2.55;;;1.30;;
19778;SDS011;10049;59.306;18.090;2023-08-06T06:06:14;1.58;;;1.30;;
19778;SDS011;10049;59.306;18.090;2023-08-06T06:08:43;1.52;;;1.10;;
19778;SDS011;10049;59.306;18.090;2023-08-06T06:11:15;1.27;;;1.15;;
19778;SDS011;10049;59.306;18.090;2023-08-06T06:13:49;3.70;;;1.30;;
19778;SDS011;10049;59.306;18.090;2023-08-06T06:16:16;1.98;;;1.27;;
19778;SDS011;10049;59.306;18.090;2023-08-06T06:18:45;5.13;;;1.10;;
19778;SDS011;10049;59.306;18.090;2023-08-06T06:21:15;3.42;;;1.35;;
19778;SDS011;10049;59.306;18.090;2023-08-06T06:23:43;1.67;;;1.15;;
19778;SDS011;10049;59.306;18.090;2023-08-06T06:26:10;1.23;;;1.13;;
19778;SDS011;10049;59.306;18.090;2023-08-06T06:28:38;2.50;;;1.00;;
19778;SDS011;10049;59.306;18.090;2023-08-06T06:31:09;1.23;;;1.00;;
19778;SDS011;10049;59.306;18.090;2023-08-06T06:33:38;1.30;;;1.13;;
19778;SDS011;10049;59.306;18.090;2023-08-06T06:36:07;4.00;;;1.27;;
19778;SDS011;10049;59.306;18.090;2023-08-06T06:38:36;1.40;;;1.00;;
19778;SDS011;10049;59.306;18.090;2023-08-06T06:41:04;0.80;;;0.80;;
19778;SDS011;10049;59.306;18.090;2023-08-06T06:43:33;1.55;;;1.00;;
19778;SDS011;10049;59.306;18.090;2023-08-06T06:46:01;2.00;;;1.02;;
19778;SDS011;10049;59.306;18.090;2023-08-06T06:48:32;1.98;;;1.08;;
19778;SDS011;10049;59.306;18.090;2023-08-06T06:51:01;2.15;;;1.10;;
19778;SDS011;10049;59.306;18.090;2023-08-06T06:53:28;1.77;;;0.80;;
19778;SDS011;10049;59.306;18.090;2023-08-06T06:56:01;0.80;;;0.80;;
19778;SDS011;10049;59.306;18.090;2023-08-06T06:58:32;1.05;;;0.90;;
19778;SDS011;10049;59.306;18.090;2023-08-06T07:01:00;1.13;;;1.00;;
19778;SDS011;10049;59.306;18.090;2023-08-06T07:03:28;2.05;;;0.90;;
19778;SDS011;10049;59.306;18.090;2023-08-06T07:06:01;3.22;;;1.00;;
19778;SDS011;10049;59.306;18.090;2023-08-06T07:08:34;1.35;;;0.90;;
19778;SDS011;10049;59.306;18.090;2023-08-06T07:11:01;4.47;;;0.82;;
19778;SDS011;10049;59.306;18.090;2023-08-06T07:13:33;3.15;;;1.17;;
19778;SDS011;10049;59.306;18.090;2023-08-06T07:16:01;1.50;;;1.00;;
19778;SDS011;10049;59.306;18.090;2023-08-06T07:18:29;1.25;;;0.90;;
19778;SDS011;10049;59.306;18.090;2023-08-06T07:20:58;3.33;;;1.10;;
19778;SDS011;10049;59.306;18.090;2023-08-06T07:23:26;2.45;;;0.90;;
19778;SDS011;10049;59.306;18.090;2023-08-06T07:25:55;1.58;;;1.00;;
19778;SDS011;10049;59.306;18.090;2023-08-06T07:28:24;0.80;;;0.80;;
19778;SDS011;10049;59.306;18.090;2023-08-06T07:30:52;2.15;;;1.20;;
19778;SDS011;10049;59.306;18.090;2023-08-06T07:33:19;3.95;;;1.40;;
19778;SDS011;10049;59.306;18.090;2023-08-06T07:35:48;1.00;;;0.90;;
19778;SDS011;10049;59.306;18.090;2023-08-06T07:38:18;1.92;;;0.88;;
19778;SDS011;10049;59.306;18.090;2023-08-06T07:40:46;1.20;;;1.00;;
19778;SDS011;10049;59.306;18.090;2023-08-06T07:43:16;1.58;;;1.00;;
19778;SDS011;10049;59.306;18.090;2023-08-06T07:45:43;1.35;;;0.88;;
19778;SDS011;10049;59.306;18.090;2023-08-06T07:48:11;1.80;;;0.90;;
19778;SDS011;10049;59.306;18.090;2023-08-06T07:50:39;0.90;;;0.85;;
19778;SDS011;10049;59.306;18.090;2023-08-06T07:53:06;2.10;;;1.13;;
19778;SDS011;10049;59.306;18.090;2023-08-06T07:55:36;2.72;;;1.38;;
19778;SDS011;10049;59.306;18.090;2023-08-06T07:58:03;2.08;;;0.90;;
19778;SDS011;10049;59.306;18.090;2023-08-06T08:00:31;1.63;;;1.15;;
19778;SDS011;10049;59.306;18.090;2023-08-06T08:02:59;1.83;;;1.25;;
19778;SDS011;10049;59.306;18.090;2023-08-06T08:05:26;1.13;;;1.02;;
19778;SDS011;10049;59.306;18.090;2023-08-06T08:07:54;1.92;;;1.10;;
19778;SDS011;10049;59.306;18.090;2023-08-06T08:10:22;1.63;;;0.95;;
19778;SDS011;10049;59.306;18.090;2023-08-06T08:12:52;2.25;;;0.90;;
19778;SDS011;10049;59.306;18.090;2023-08-06T08:15:19;2.42;;;1.50;;
19778;SDS011;10049;59.306;18.090;2023-08-06T08:17:47;0.80;;;0.80;;
19778;SDS011;10049;59.306;18.090;2023-08-06T08:20:15;2.75;;;1.30;;
19778;SDS011;10049;59.306;18.090;2023-08-06T08:22:43;2.70;;;1.00;;
19778;SDS011;10049;59.306;18.090;2023-08-06T08:25:11;2.15;;;1.17;;
19778;SDS011;10049;59.306;18.090;2023-08-06T08:27:42;2.63;;;1.23;;
19778;SDS011;10049;59.306;18.090;2023-08-06T08:30:13;1.60;;;1.20;;
19778;SDS011;10049;59.306;18.090;2023-08-06T08:32:42;1.80;;;1.00;;
19778;SDS011;10049;59.306;18.090;2023-08-06T08:35:12;1.33;;;0.82;;
19778;SDS011;10049;59.306;18.090;2023-08-06T08:37:42;1.30;;;0.80;;
19778;SDS011;10049;59.306;18.090;2023-08-06T08:40:10;2.35;;;0.95;;
19778;SDS011;10049;59.306;18.090;2023-08-06T08:42:38;1.80;;;1.02;;
19778;SDS011;10049;59.306;18.090;2023-08-06T08:45:11;3.40;;;0.82;;
19778;SDS011;10049;59.306;18.090;2023-08-06T08:47:40;1.73;;;1.00;;
19778;SDS011;10049;59.306;18.090;2023-08-06T08:50:11;2.90;;;1.33;;
19778;SDS011;10049;59.306;18.090;2023-08-06T08:52:44;0.70;;;0.70;;
19778;SDS011;10049;59.306;18.090;2023-08-06T08:55:17;2.55;;;1.10;;
19778;SDS011;10049;59.306;18.090;2023-08-06T08:57:46;2.97;;;0.90;;
19778;SDS011;10049;59.306;18.090;2023-08-06T09:00:14;2.05;;;1.08;;
19778;SDS011;10049;59.306;18.090;2023-08-06T09:02:47;3.50;;;1.02;;
19778;SDS011;10049;59.306;18.090;2023-08-06T09:05:14;2.55;;;0.98;;
19778;SDS011;10049;59.306;18.090;2023-08-06T09:07:43;0.80;;;0.60;;
19778;SDS011;10049;59.306;18.090;2023-08-06T09:10:13;2.13;;;1.05;;
19778;SDS011;10049;59.306;18.090;2023-08-06T09:12:43;1.48;;;1.10;;
19778;SDS011;10049;59.306;18.090;2023-08-06T09:15:11;1.10;;;0.98;;
19778;SDS011;10049;59.306;18.090;2023-08-06T09:17:41;1.20;;;0.82;;
19778;SDS011;10049;59.306;18.090;2023-08-06T09:20:11;3.20;;;0.95;;
19778;SDS011;10049;59.306;18.090;2023-08-06T09:22:39;1.85;;;0.82;;
19778;SDS011;10049;59.306;18.090;2023-08-06T09:25:07;3.28;;;1.10;;
19778;SDS011;10049;59.306;18.090;2023-08-06T09:27:39;1.25;;;0.70;;
19778;SDS011;10049;59.306;18.090;2023-08-06T09:30:07;0.63;;;0.60;;
19778;SDS011;10049;59.306;18.090;2023-08-06T09:32:44;2.40;;;1.00;;
19778;SDS011;10049;59.306;18.090;2023-08-06T09:35:18;1.55;;;0.90;;
19778;SDS011;10049;59.306;18.090;2023-08-06T09:37:46;1.98;;;1.10;;
19778;SDS011;10049;59.306;18.090;2023-08-06T09:40:24;1.45;;;0.77;;
19778;SDS011;10049;59.306;18.090;2023-08-06T09:42:52;1.33;;;0.88;;
19778;SDS011;10049;59.306;18.090;2023-08-06T09:45:21;3.20;;;0.75;;
19778;SDS011;10049;59.306;18.090;2023-08-06T09:47:54;1.80;;;0.82;;
19778;SDS011;10049;59.306;18.090;2023-08-06T09:50:28;1.15;;;0.90;;
19778;SDS011;10049;59.306;18.090;2023-08-06T09:52:57;0.82;;;0.82;;
19778;SDS011;10049;59.306;18.090;2023-08-06T09:55:25;3.40;;;0.70;;
19778;SDS011;10049;59.306;18.090;2023-08-06T09:57:53;2.47;;;0.80;;
19778;SDS011;10049;59.306;18.090;2023-08-06T10:00:22;0.82;;;0.70;;
19778;SDS011;10049;59.306;18.090;2023-08-06T10:02:53;2.42;;;0.80;;
19778;SDS011;10049;59.306;18.090;2023-08-06T10:05:23;0.40;;;0.40;;
19778;SDS011;10049;59.306;18.090;2023-08-06T10:07:52;2.30;;;0.70;;
19778;SDS011;10049;59.306;18.090;2023-08-06T10:10:21;1.85;;;1.05;;
19778;SDS011;10049;59.306;18.090;2023-08-06T10:12:50;2.67;;;0.95;;
19778;SDS011;10049;59.306;18.090;2023-08-06T10:15:20;0.85;;;0.70;;
19778;SDS011;10049;59.306;18.090;2023-08-06T10:17:50;2.00;;;0.70;;
19778;SDS011;10049;59.306;18.090;2023-08-06T10:20:19;0.85;;;0.80;;
19778;SDS011;10049;59.306;18.090;2023-08-06T10:25:34;3.28;;;1.20;;
19778;SDS011;10049;59.306;18.090;2023-08-06T10:28:06;1.67;;;1.23;;
19778;SDS011;10049;59.306;18.090;2023-08-06T10:30:40;1.92;;;1.05;;
19778;SDS011;10049;59.306;18.090;2023-08-06T10:33:08;1.00;;;0.80;;
19778;SDS011;10049;59.306;18.090;2023-08-06T10:35:38;1.42;;;0.90;;
19778;SDS011;10049;59.306;18.090;2023-08-06T10:38:15;0.98;;;0.80;;
19778;SDS011;10049;59.306;18.090;2023-08-06T10:41:00;2.95;;;1.00;;
19778;SDS011;10049;59.306;18.090;2023-08-06T10:43:29;1.60;;;0.85;;
19778;SDS011;10049;59.306;18.090;2023-08-06T10:45:59;1.23;;;0.85;;
19778;SDS011;10049;59.306;18.090;2023-08-06T10:48:34;2.38;;;0.93;;
19778;SDS011;10049;59.306;18.090;2023-08-06T10:51:08;1.23;;;0.70;;
19778;SDS011;10049;59.306;18.090;2023-08-06T10:53:37;0.73;;;0.73;;
19778;SDS011;10049;59.306;18.090;2023-08-06T10:56:15;2.22;;;0.88;;
19778;SDS011;10049;59.306;18.090;2023-08-06T10:58:44;3.85;;;1.17;;
19778;SDS011;10049;59.306;18.090;2023-08-06T11:01:12;0.82;;;0.82;;
19778;SDS011;10049;59.306;18.090;2023-08-06T11:03:41;1.70;;;1.30;;
19778;SDS011;10049;59.306;18.090;2023-08-06T11:06:09;2.28;;;1.10;;
19778;SDS011;10049;59.306;18.090;2023-08-06T11:08:37;2.45;;;0.93;;
19778;SDS011;10049;59.306;18.090;2023-08-06T11:11:09;2.80;;;1.30;;
19778;SDS011;10049;59.306;18.090;2023-08-06T11:13:41;2.00;;;1.08;;
19778;SDS011;10049;59.306;18.090;2023-08-06T11:16:11;2.67;;;1.40;;
19778;SDS011;10049;59.306;18.090;2023-08-06T11:18:45;2.28;;;1.05;;
19778;SDS011;10049;59.306;18.090;2023-08-06T11:21:18;2.92;;;1.20;;
19778;SDS011;10049;59.306;18.090;2023-08-06T11:23:45;6.30;;;1.20;;
19778;SDS011;10049;59.306;18.090;2023-08-06T11:26:18;0.75;;;0.73;;
19778;SDS011;10049;59.306;18.090;2023-08-06T11:28:49;3.72;;;1.40;;
19778;SDS011;10049;59.306;18.090;2023-08-06T11:31:18;2.67;;;1.50;;
19778;SDS011;10049;59.306;18.090;2023-08-06T11:33:47;2.72;;;1.58;;
19778;SDS011;10049;59.306;18.090;2023-08-06T11:36:15;1.98;;;1.50;;
19778;SDS011;10049;59.306;18.090;2023-08-06T11:38:43;2.70;;;1.25;;
19778;SDS011;10049;59.306;18.090;2023-08-06T11:41:11;4.68;;;2.15;;
19778;SDS011;10049;59.306;18.090;2023-08-06T11:43:39;3.75;;;1.65;;
19778;SDS011;10049;59.306;18.090;2023-08-06T11:46:09;3.50;;;1.50;;
19778;SDS011;10049;59.306;18.090;2023-08-06T11:48:50;3.72;;;1.75;;
19778;SDS011;10049;59.306;18.090;2023-08-06T11:51:21;2.30;;;1.63;;
19778;SDS011;10049;59.306;18.090;2023-08-06T11:53:53;1.45;;;1.20;;
19778;SDS011;10049;59.306;18.090;2023-08-06T11:56:22;6.03;;;1.90;;
19778;SDS011;10049;59.306;18.090;2023-08-06T11:58:54;2.17;;;1.30;;
19778;SDS011;10049;59.306;18.090;2023-08-06T12:01:25;2.50;;;1.60;;
19778;SDS011;10049;59.306;18.090;2023-08-06T12:03:57;4.50;;;1.70;;
19778;SDS011;10049;59.306;18.090;2023-08-06T12:06:26;5.07;;;2.15;;
19778;SDS011;10049;59.306;18.090;2023-08-06T12:08:54;2.83;;;2.10;;
19778;SDS011;10049;59.306;18.090;2023-08-06T12:11:22;6.40;;;1.80;;
19778;SDS011;10049;59.306;18.090;2023-08-06T12:13:50;3.20;;;1.58;;
19778;SDS011;10049;59.306;18.090;2023-08-06T12:16:18;1.70;;;0.95;;
19778;SDS011;10049;59.306;18.090;2023-08-06T12:18:48;2.70;;;1.90;;
19778;SDS011;10049;59.306;18.090;2023-08-06T12:21:15;5.00;;;1.65;;
19778;SDS011;10049;59.306;18.090;2023-08-06T12:23:43;5.05;;;1.85;;
19778;SDS011;10049;59.306;18.090;2023-08-06T12:26:11;2.40;;;2.00;;
19778;SDS011;10049;59.306;18.090;2023-08-06T12:28:39;1.00;;;0.70;;
19778;SDS011;10049;59.306;18.090;2023-08-06T12:31:07;2.95;;;1.83;;
19778;SDS011;10049;59.306;18.090;2023-08-06T12:33:36;3.05;;;1.48;;
19778;SDS011;10049;59.306;18.090;2023-08-06T12:36:06;2.85;;;2.05;;
19778;SDS011;10049;59.306;18.090;2023-08-06T12:38:34;1.88;;;1.15;;
19778;SDS011;10049;59.306;18.090;2023-08-06T12:41:07;3.03;;;2.10;;
19778;SDS011;10049;59.306;18.090;2023-08-06T12:43:49;0.88;;;0.80;;
19778;SDS011;10049;59.306;18.090;2023-08-06T12:46:17;1.80;;;1.60;;
19778;SDS011;10049;59.306;18.090;2023-08-06T12:48:46;2.03;;;1.30;;
19778;SDS011;10049;59.306;18.090;2023-08-06T12:51:15;3.33;;;0.80;;
19778;SDS011;10049;59.306;18.090;2023-08-06T12:53:44;1.00;;;0.95;;
19778;SDS011;10049;59.306;18.090;2023-08-06T12:56:11;1.25;;;1.10;;
19778;SDS011;10049;59.306;18.090;2023-08-06T12:58:39;1.27;;;1.02;;
19778;SDS011;10049;59.306;18.090;2023-08-06T13:01:07;2.20;;;1.50;;
19778;SDS011;10049;59.306;18.090;2023-08-06T13:03:35;2.13;;;1.40;;
19778;SDS011;10049;59.306;18.090;2023-08-06T13:06:02;1.10;;;1.02;;
19778;SDS011;10049;59.306;18.090;2023-08-06T13:08:31;1.10;;;1.00;;
19778;SDS011;10049;59.306;18.090;2023-08-06T13:10:59;2.92;;;1.73;;
19778;SDS011;10049;59.306;18.090;2023-08-06T13:13:28;2.65;;;1.88;;
19778;SDS011;10049;59.306;18.090;2023-08-06T13:15:55;2.35;;;1.55;;
19778;SDS011;10049;59.306;18.090;2023-08-06T13:18:23;1.80;;;1.20;;
19778;SDS011;10049;59.306;18.090;2023-08-06T13:20:53;0.85;;;0.73;;
19778;SDS011;10049;59.306;18.090;2023-08-06T13:23:20;1.77;;;1.20;;
19778;SDS011;10049;59.306;18.090;2023-08-06T13:25:49;1.95;;;1.60;;
19778;SDS011;10049;59.306;18.090;2023-08-06T13:28:17;3.33;;;1.52;;
19778;SDS011;10049;59.306;18.090;2023-08-06T13:30:45;2.35;;;1.80;;
19778;SDS011;10049;59.306;18.090;2023-08-06T13:33:13;3.05;;;1.60;;
19778;SDS011;10049;59.306;18.090;2023-08-06T13:35:42;5.53;;;1.42;;
19778;SDS011;10049;59.306;18.090;2023-08-06T13:38:10;3.78;;;1.40;;
19778;SDS011;10049;59.306;18.090;2023-08-06T13:40:37;2.13;;;1.15;;
19778;SDS011;10049;59.306;18.090;2023-08-06T13:43:07;2.33;;;1.25;;
19778;SDS011;10049;59.306;18.090;2023-08-06T13:45:34;1.85;;;1.25;;
19778;SDS011;10049;59.306;18.090;2023-08-06T13:48:03;2.22;;;1.70;;
19778;SDS011;10049;59.306;18.090;2023-08-06T13:50:31;1.48;;;1.35;;
19778;SDS011;10049;59.306;18.090;2023-08-06T13:52:59;3.67;;;1.80;;
19778;SDS011;10049;59.306;18.090;2023-08-06T13:55:27;5.18;;;1.80;;
19778;SDS011;10049;59.306;18.090;2023-08-06T13:57:55;3.45;;;1.65;;
19778;SDS011;10049;59.306;18.090;2023-08-06T14:00:24;0.95;;;0.82;;
19778;SDS011;10049;59.306;18.090;2023-08-06T14:02:52;4.85;;;1.92;;
19778;SDS011;10049;59.306;18.090;2023-08-06T14:05:19;3.40;;;1.20;;
19778;SDS011;10049;59.306;18.090;2023-08-06T14:07:47;1.85;;;1.40;;
19778;SDS011;10049;59.306;18.090;2023-08-06T14:10:16;3.97;;;1.80;;
19778;SDS011;10049;59.306;18.090;2023-08-06T14:12:44;2.20;;;1.77;;
19778;SDS011;10049;59.306;18.090;2023-08-06T14:15:11;2.83;;;1.35;;
19778;SDS011;10049;59.306;18.090;2023-08-06T14:17:41;4.60;;;2.10;;
19778;SDS011;10049;59.306;18.090;2023-08-06T14:20:09;4.68;;;2.50;;
19778;SDS011;10049;59.306;18.090;2023-08-06T14:22:37;3.75;;;1.83;;
19778;SDS011;10049;59.306;18.090;2023-08-06T14:25:05;4.88;;;2.20;;
19778;SDS011;10049;59.306;18.090;2023-08-06T14:27:33;2.60;;;1.92;;
19778;SDS011;10049;59.306;18.090;2023-08-06T14:30:01;3.08;;;2.30;;
19778;SDS011;10049;59.306;18.090;2023-08-06T14:32:29;4.05;;;2.42;;
19778;SDS011;10049;59.306;18.090;2023-08-06T14:34:58;1.77;;;1.27;;
19778;SDS011;10049;59.306;18.090;2023-08-06T14:37:26;1.60;;;1.10;;
19778;SDS011;10049;59.306;18.090;2023-08-06T14:39:55;3.22;;;1.83;;
19778;SDS011;10049;59.306;18.090;2023-08-06T14:42:23;2.88;;;1.77;;
19778;SDS011;10049;59.306;18.090;2023-08-06T14:44:50;2.03;;;1.42;;
19778;SDS011;10049;59.306;18.090;2023-08-06T14:47:18;4.45;;;2.17;;